createdAt,value
2019-04-10T00:01:53.254Z,26.43
2019-04-10T00:04:25.204Z,28.77
2019-04-10T00:07:08.379Z,27.93
2019-04-10T00:09:29.458Z,29.57
2019-04-10T00:12:00.996Z,27.30
2019-04-10T00:14:32.435Z,27.07
2019-04-10T00:17:03.471Z,31.10
2019-04-10T00:19:35.732Z,27.80
2019-04-10T00:22:06.897Z,29.80
2019-04-10T00:24:37.927Z,26.27
2019-04-10T00:27:08.883Z,26.13
2019-04-10T00:29:40.415Z,33.17
2019-04-10T00:32:11.951Z,31.50
2019-04-10T00:34:43.010Z,23.50
2019-04-10T00:37:21.880Z,24.30
2019-04-10T00:39:46.696Z,24.33
2019-04-10T00:42:18.785Z,29.07
2019-04-10T00:44:50.165Z,22.30
2019-04-10T00:47:21.270Z,28.20
2019-04-10T00:49:52.331Z,24.47
2019-04-10T00:52:24.096Z,32.70
2019-04-10T00:54:55.393Z,21.67
2019-04-10T00:57:27.520Z,25.30
2019-04-10T00:59:58.870Z,29.07
2019-04-10T01:02:29.956Z,26.53
2019-04-10T01:05:00.940Z,21.40
2019-04-10T01:07:39.457Z,25.00
2019-04-10T01:10:08.148Z,27.90
2019-04-10T01:12:40.435Z,24.33
2019-04-10T01:15:12.129Z,24.70
2019-04-10T01:17:43.384Z,29.70
2019-04-10T01:20:15.608Z,33.23
2019-04-10T01:22:47.682Z,30.20
2019-04-10T01:25:18.756Z,26.03
2019-04-10T01:27:50.032Z,29.00
2019-04-10T01:30:22.167Z,29.07
2019-04-10T01:32:54.360Z,31.73
2019-04-10T01:35:26.541Z,22.67
2019-04-10T01:38:00.998Z,28.03
2019-04-10T01:40:30.910Z,33.87
2019-04-10T01:43:09.946Z,25.30
2019-04-10T01:45:36.055Z,26.00
2019-04-10T01:48:07.913Z,30.27
2019-04-10T01:50:39.029Z,35.10
2019-04-10T01:53:10.021Z,36.80
2019-04-10T01:55:41.014Z,26.80
2019-04-10T01:58:21.094Z,24.27
2019-04-10T02:01:14.337Z,25.50
2019-04-10T02:03:46.501Z,38.20
2019-04-10T02:06:18.861Z,33.83
2019-04-10T02:08:50.039Z,30.50
2019-04-10T02:11:21.744Z,28.20
2019-04-10T02:13:53.896Z,28.20
2019-04-10T02:16:25.576Z,26.83
2019-04-10T02:18:57.725Z,32.73
2019-04-10T02:21:28.807Z,29.47
2019-04-10T02:24:00.823Z,30.17
2019-04-10T02:26:32.069Z,23.10
2019-04-10T02:29:03.815Z,23.07
2019-04-10T02:31:36.464Z,31.57
2019-04-10T02:34:09.379Z,30.17
2019-04-10T02:36:40.497Z,25.60
2019-04-10T02:39:20.546Z,29.50
2019-04-10T02:41:45.714Z,23.67
2019-04-10T02:44:18.513Z,36.47
2019-04-10T02:46:50.187Z,23.00
2019-04-10T02:49:22.532Z,20.70
2019-04-10T02:51:54.851Z,28.70
2019-04-10T02:54:27.066Z,34.37
2019-04-10T02:56:58.623Z,32.77
2019-04-10T02:59:30.947Z,27.70
2019-04-10T03:02:02.929Z,26.60
2019-04-10T03:04:37.073Z,22.60
2019-04-10T03:07:09.491Z,33.13
2019-04-10T03:09:53.644Z,31.60
2019-04-10T03:12:14.559Z,31.50
2019-04-10T03:14:47.521Z,29.97
2019-04-10T03:17:19.759Z,41.90
2019-04-10T03:19:51.859Z,27.33
2019-04-10T03:22:23.084Z,32.20
2019-04-10T03:24:54.736Z,30.60
2019-04-10T03:27:26.032Z,31.00
2019-04-10T03:29:57.344Z,31.87
2019-04-10T03:32:51.779Z,31.90
2019-04-10T03:35:27.257Z,34.70
2019-04-10T03:37:59.181Z,26.10
2019-04-10T03:40:31.375Z,36.20
2019-04-10T03:43:03.546Z,28.40
2019-04-10T03:45:34.803Z,39.17
2019-04-10T03:48:06.429Z,36.20
2019-04-10T03:50:37.595Z,32.00
2019-04-10T03:53:09.619Z,27.27
2019-04-10T03:55:41.053Z,31.83
2019-04-10T03:58:12.043Z,27.80
2019-04-10T04:00:43.278Z,31.93
2019-04-10T04:03:14.255Z,31.80
2019-04-10T04:05:45.327Z,25.43
2019-04-10T04:08:16.326Z,24.70
2019-04-10T04:10:47.309Z,31.03
2019-04-10T04:13:19.471Z,29.67
2019-04-10T04:15:50.673Z,29.80
2019-04-10T04:18:21.845Z,23.20
2019-04-10T04:20:53.047Z,21.70
2019-04-10T04:23:24.036Z,24.83
2019-04-10T04:25:55.106Z,25.13
2019-04-10T04:28:26.157Z,24.80
2019-04-10T04:30:57.235Z,25.70
2019-04-10T04:33:28.244Z,26.53
2019-04-10T04:35:59.915Z,22.60
2019-04-10T04:38:31.022Z,23.27
2019-04-10T04:41:02.409Z,26.80
2019-04-10T04:43:33.495Z,30.50
2019-04-10T04:46:04.563Z,22.70
2019-04-10T04:48:35.548Z,26.23
2019-04-10T04:51:06.771Z,28.20
2019-04-10T04:53:37.822Z,25.63
2019-04-10T04:56:09.481Z,24.13
2019-04-10T04:58:40.660Z,29.97
2019-04-10T05:01:12.672Z,24.67
2019-04-10T05:03:44.337Z,22.93
2019-04-10T05:06:16.014Z,20.57
2019-04-10T05:08:47.173Z,28.10
2019-04-10T05:11:18.380Z,28.73
2019-04-10T05:13:49.474Z,28.07
2019-04-10T05:16:20.692Z,32.30
2019-04-10T05:18:52.021Z,21.00
2019-04-10T05:21:23.221Z,26.10
2019-04-10T05:23:54.197Z,21.73
2019-04-10T05:26:25.684Z,19.67
2019-04-10T05:28:57.117Z,23.77
2019-04-10T05:31:28.206Z,21.20
2019-04-10T05:33:59.221Z,23.50
2019-04-10T05:36:31.228Z,17.40
2019-04-10T05:39:04.246Z,22.57
2019-04-10T05:41:35.279Z,18.43
2019-04-10T05:44:07.422Z,28.20
2019-04-10T05:46:38.841Z,22.50
2019-04-10T05:49:11.142Z,20.70
2019-04-10T05:51:42.128Z,26.27
2019-04-10T05:54:13.115Z,27.43
2019-04-10T05:56:44.796Z,25.40
2019-04-10T05:59:16.406Z,23.10
2019-04-10T06:01:48.480Z,25.73
2019-04-10T06:04:19.676Z,31.03
2019-04-10T06:06:50.655Z,23.47
2019-04-10T06:09:22.670Z,25.27
2019-04-10T06:11:53.743Z,25.03
2019-04-10T06:14:24.721Z,24.97
2019-04-10T06:16:55.773Z,25.73
2019-04-10T06:19:26.985Z,26.53
2019-04-10T06:21:58.035Z,27.73
2019-04-10T06:24:29.948Z,22.50
2019-04-10T06:27:01.870Z,22.77
2019-04-10T06:29:33.096Z,28.07
2019-04-10T06:32:05.238Z,37.57
2019-04-10T06:34:38.398Z,40.70
2019-04-10T06:37:10.262Z,32.83
2019-04-10T06:39:43.410Z,28.40
2019-04-10T06:42:14.289Z,49.27
2019-04-10T06:44:46.052Z,55.00
2019-04-10T06:47:18.146Z,66.30
2019-04-10T06:49:49.222Z,61.27
2019-04-10T06:52:20.690Z,52.20
2019-04-10T06:54:51.668Z,63.10
2019-04-10T06:57:22.965Z,100.43
2019-04-10T06:59:54.427Z,91.80
2019-04-10T07:02:30.530Z,96.87
2019-04-10T07:05:04.994Z,104.90
2019-04-10T07:07:46.356Z,103.17
2019-04-10T07:10:19.673Z,106.13
2019-04-10T07:12:38.039Z,96.77
2019-04-10T07:15:10.544Z,116.43
2019-04-10T07:17:42.215Z,108.97
2019-04-10T07:20:18.389Z,106.33
2019-04-10T07:22:49.732Z,91.63
2019-04-10T07:25:21.781Z,96.43
2019-04-10T07:27:54.237Z,101.63
2019-04-10T07:30:26.622Z,102.50
2019-04-10T07:32:59.196Z,111.03
2019-04-10T07:35:33.714Z,109.67
2019-04-10T07:38:03.101Z,107.10
2019-04-10T07:40:36.455Z,103.93
2019-04-10T07:43:06.898Z,102.20
2019-04-10T07:45:39.208Z,104.77
2019-04-10T07:48:10.710Z,106.97
2019-04-10T07:50:44.465Z,104.80
2019-04-10T07:53:14.895Z,102.60
2019-04-10T07:55:59.054Z,100.50
2019-04-10T07:58:19.491Z,98.03
2019-04-10T08:00:51.417Z,99.77
2019-04-10T08:03:22.894Z,104.27
2019-04-10T08:05:54.745Z,111.47
2019-04-10T08:08:26.024Z,103.37
2019-04-10T08:10:57.411Z,100.03
2019-04-10T08:13:28.897Z,101.37
2019-04-10T08:16:02.752Z,95.10
2019-04-10T08:18:35.045Z,99.50
2019-04-10T08:21:07.130Z,103.80
2019-04-10T08:23:38.399Z,92.33
2019-04-10T08:26:09.408Z,112.17
2019-04-10T08:28:41.287Z,95.10
2019-04-10T08:31:12.779Z,100.07
2019-04-10T08:33:44.066Z,92.60
2019-04-10T08:36:15.315Z,93.67
2019-04-10T08:38:46.689Z,101.80
2019-04-10T08:41:17.924Z,102.27
2019-04-10T08:43:50.184Z,109.13
2019-04-10T08:46:21.879Z,101.27
2019-04-10T08:48:53.920Z,96.70
2019-04-10T08:51:25.674Z,108.33
2019-04-10T08:53:56.938Z,106.97
2019-04-10T08:56:28.071Z,100.20
2019-04-10T08:59:00.356Z,114.00
2019-04-10T09:01:31.711Z,111.30
2019-04-10T09:04:03.631Z,108.17
2019-04-10T09:06:35.625Z,118.57
2019-04-10T09:09:09.652Z,104.97
2019-04-10T09:11:41.076Z,111.73
2019-04-10T09:14:12.842Z,109.50
2019-04-10T09:16:44.922Z,95.30
2019-04-10T09:19:16.187Z,102.90
2019-04-10T09:21:47.906Z,116.03
2019-04-10T09:24:19.638Z,104.97
2019-04-10T09:26:50.906Z,109.60
2019-04-10T09:29:24.717Z,103.93
2019-04-10T09:31:55.984Z,104.43
2019-04-10T09:34:27.673Z,111.67
2019-04-10T09:36:59.820Z,115.07
2019-04-10T09:39:31.800Z,103.63
2019-04-10T09:42:03.350Z,107.77
2019-04-10T09:44:35.609Z,99.80
2019-04-10T09:47:07.738Z,109.60
2019-04-10T09:49:43.701Z,110.30
2019-04-10T09:52:12.407Z,106.43
2019-04-10T09:54:43.690Z,99.87
2019-04-10T09:57:15.386Z,111.00
2019-04-10T09:59:47.269Z,99.37
2019-04-10T10:02:19.554Z,106.80
2019-04-10T10:04:50.781Z,109.60
2019-04-10T10:07:21.727Z,93.20
2019-04-10T10:09:52.751Z,97.70
2019-04-10T10:12:23.727Z,108.53
2019-04-10T10:14:55.961Z,107.00
2019-04-10T10:17:28.526Z,104.47
2019-04-10T10:19:59.724Z,102.63
2019-04-10T10:22:31.945Z,96.57
2019-04-10T10:25:03.175Z,99.27
2019-04-10T10:27:35.490Z,110.73
2019-04-10T10:30:09.372Z,105.40
2019-04-10T10:32:42.131Z,107.53
2019-04-10T10:35:14.671Z,110.30
2019-04-10T10:37:46.319Z,115.40
2019-04-10T10:40:19.313Z,109.60
2019-04-10T10:42:50.446Z,109.23
2019-04-10T10:45:22.831Z,118.57
2019-04-10T10:47:54.762Z,111.83
2019-04-10T10:50:25.896Z,112.10
2019-04-10T10:52:57.595Z,108.90
2019-04-10T10:55:29.735Z,106.27
2019-04-10T10:58:01.691Z,115.47
2019-04-10T11:00:33.571Z,106.87
2019-04-10T11:03:05.700Z,104.53
2019-04-10T11:05:37.305Z,108.33
2019-04-10T11:08:08.444Z,129.40
2019-04-10T11:10:39.499Z,98.37
2019-04-10T11:13:10.500Z,109.07
2019-04-10T11:15:45.217Z,108.17
2019-04-10T11:18:14.478Z,105.27
2019-04-10T11:20:45.556Z,113.00
2019-04-10T11:23:18.246Z,107.53
2019-04-10T11:25:50.357Z,117.43
2019-04-10T11:28:22.258Z,100.33
2019-04-10T11:30:54.290Z,116.80
2019-04-10T11:33:26.322Z,97.60
2019-04-10T11:36:00.097Z,108.73
2019-04-10T11:38:31.209Z,111.23
2019-04-10T11:41:03.539Z,113.53
2019-04-10T11:43:36.226Z,105.50
2019-04-10T11:46:08.122Z,108.33
2019-04-10T11:48:41.861Z,109.63
2019-04-10T11:51:13.451Z,117.63
2019-04-10T11:53:50.750Z,105.90
2019-04-10T11:56:19.194Z,111.53
2019-04-10T11:58:55.858Z,122.90
2019-04-10T12:01:25.549Z,106.00
2019-04-10T12:03:56.790Z,107.97
2019-04-10T12:06:29.860Z,124.50
2019-04-10T12:09:32.041Z,109.80
2019-04-10T12:11:37.103Z,107.27
2019-04-10T12:14:08.219Z,106.73
2019-04-10T12:16:39.225Z,97.30
2019-04-10T12:19:11.038Z,108.37
2019-04-10T12:21:42.185Z,111.17
2019-04-10T12:24:14.054Z,118.03
2019-04-10T12:26:45.299Z,112.23
2019-04-10T12:29:16.317Z,273.83
2019-04-10T12:31:48.206Z,259.73
2019-04-10T12:34:20.215Z,123.97
2019-04-10T12:36:53.427Z,115.37
2019-04-10T12:39:25.112Z,119.20
2019-04-10T12:41:56.243Z,120.33
2019-04-10T12:44:27.238Z,126.63
2019-04-10T12:46:58.237Z,122.23
2019-04-10T12:49:29.738Z,117.93
2019-04-10T12:52:00.800Z,115.30
2019-04-10T12:54:31.944Z,120.13
2019-04-10T12:57:04.241Z,131.93
2019-04-10T12:59:35.384Z,104.47
2019-04-10T13:02:06.594Z,102.27
2019-04-10T13:04:38.607Z,107.10
2019-04-10T13:07:09.709Z,101.73
2019-04-10T13:09:40.707Z,105.60
2019-04-10T13:12:11.794Z,99.67
2019-04-10T13:14:43.128Z,99.60
2019-04-10T13:17:16.487Z,107.37
2019-04-10T13:19:49.244Z,104.03
2019-04-10T13:22:20.378Z,92.57
2019-04-10T13:24:52.090Z,97.03
2019-04-10T13:27:23.330Z,102.13
2019-04-10T13:29:54.422Z,109.90
2019-04-10T13:32:25.586Z,112.97
2019-04-10T13:34:57.613Z,107.07
2019-04-10T13:37:28.725Z,97.90
2019-04-10T13:39:59.729Z,110.73
2019-04-10T13:42:31.585Z,96.73
2019-04-10T13:45:02.940Z,98.23
2019-04-10T13:47:35.250Z,104.90
2019-04-10T13:50:08.469Z,97.63
2019-04-10T13:52:42.603Z,105.23
2019-04-10T13:55:14.937Z,104.90
2019-04-10T13:57:46.616Z,109.13
2019-04-10T14:00:27.983Z,107.50
2019-04-10T14:02:59.076Z,101.93
2019-04-10T14:05:32.466Z,101.17
2019-04-10T14:08:03.477Z,106.90
2019-04-10T14:10:35.297Z,118.23
2019-04-10T14:13:07.474Z,107.03
2019-04-10T14:15:38.633Z,110.33
2019-04-10T14:18:10.230Z,123.03
2019-04-10T14:20:41.620Z,111.10
2019-04-10T14:23:22.360Z,101.83
2019-04-10T14:26:16.162Z,106.10
2019-04-10T14:28:49.399Z,103.80
2019-04-10T14:31:45.428Z,133.93
2019-04-10T14:34:18.413Z,142.07
2019-04-10T14:36:49.422Z,468.67
2019-04-10T14:39:21.440Z,129.87
2019-04-10T14:41:53.924Z,101.03
2019-04-10T14:44:25.025Z,140.73
2019-04-10T14:46:56.356Z,158.57
2019-04-10T14:49:27.357Z,136.17
2019-04-10T14:51:58.902Z,158.03
2019-04-10T14:54:30.172Z,115.97
2019-04-10T14:57:02.435Z,339.00
2019-04-10T14:59:33.835Z,185.03
2019-04-10T15:02:06.954Z,107.83
2019-04-10T15:04:37.967Z,102.10
2019-04-10T15:07:10.070Z,194.70
2019-04-10T15:10:36.697Z,107.87
2019-04-10T15:13:13.643Z,189.53
2019-04-10T15:15:40.711Z,116.50
2019-04-10T15:18:12.998Z,108.93
2019-04-10T15:20:45.306Z,102.57
2019-04-10T15:23:16.324Z,109.40
2019-04-10T15:25:47.510Z,108.77
2019-04-10T15:28:18.609Z,366.73
2019-04-10T15:30:50.745Z,219.23
2019-04-10T15:33:22.509Z,148.93
2019-04-10T15:35:53.699Z,119.23
2019-04-10T15:38:24.770Z,122.07
2019-04-10T15:40:56.795Z,109.17
2019-04-10T15:43:28.048Z,120.43
2019-04-10T15:46:00.123Z,117.03
2019-04-10T15:48:31.263Z,111.03
2019-04-10T15:51:03.530Z,107.43
2019-04-10T15:53:34.940Z,115.33
2019-04-10T15:56:06.206Z,109.60
2019-04-10T15:58:37.432Z,105.60
2019-04-10T16:01:12.361Z,109.20
2019-04-10T16:03:47.913Z,100.00
2019-04-10T16:06:19.124Z,116.53
2019-04-10T16:08:50.431Z,109.17
2019-04-10T16:11:52.734Z,102.53
2019-04-10T16:14:27.124Z,118.80
2019-04-10T16:17:10.410Z,109.07
2019-04-10T16:20:15.594Z,112.63
2019-04-10T16:23:01.736Z,121.67
2019-04-10T16:25:34.000Z,117.43
2019-04-10T16:28:06.358Z,112.87
2019-04-10T16:30:37.368Z,105.53
2019-04-10T16:33:09.068Z,107.80
2019-04-10T16:35:40.450Z,122.00
2019-04-10T16:38:12.128Z,113.93
2019-04-10T16:40:43.827Z,117.37
2019-04-10T16:43:16.004Z,122.53
2019-04-10T16:45:47.246Z,111.70
2019-04-10T16:48:18.913Z,123.67
2019-04-10T16:50:50.169Z,123.13
2019-04-10T16:53:22.188Z,121.33
2019-04-10T16:55:54.370Z,133.53
2019-04-10T16:58:25.604Z,129.70
2019-04-10T17:00:57.936Z,137.57
2019-04-10T17:03:29.656Z,128.53
2019-04-10T17:06:01.789Z,131.40
2019-04-10T17:08:34.067Z,138.77
2019-04-10T17:11:07.040Z,141.17
2019-04-10T17:13:38.507Z,135.07
2019-04-10T17:16:10.595Z,143.33
2019-04-10T17:18:41.723Z,131.97
2019-04-10T17:21:15.151Z,131.87
2019-04-10T17:23:46.935Z,136.90
2019-04-10T17:26:19.047Z,195.30
2019-04-10T17:28:50.438Z,141.90
2019-04-10T17:31:22.489Z,142.53
2019-04-10T17:33:54.468Z,147.67
2019-04-10T17:36:25.777Z,146.40
2019-04-10T17:38:56.829Z,166.37
2019-04-10T17:41:28.107Z,147.37
2019-04-10T17:44:01.115Z,199.80
2019-04-10T17:46:33.369Z,155.87
2019-04-10T17:49:05.363Z,159.27
2019-04-10T17:51:36.493Z,169.03
2019-04-10T17:54:07.495Z,159.60
2019-04-10T17:56:38.538Z,133.07
2019-04-10T17:59:09.856Z,143.97
2019-04-10T18:01:41.166Z,162.03
2019-04-10T18:04:12.334Z,166.63
2019-04-10T18:06:45.689Z,151.60
2019-04-10T18:09:16.181Z,150.40
2019-04-10T18:11:47.723Z,196.93
2019-04-10T18:14:19.431Z,151.90
2019-04-10T18:16:50.577Z,172.70
2019-04-10T18:19:22.191Z,174.17
2019-04-10T18:21:54.184Z,202.87
2019-04-10T18:24:26.216Z,184.30
2019-04-10T18:26:58.399Z,194.30
2019-04-10T18:29:30.942Z,177.00
2019-04-10T18:32:02.681Z,190.00
2019-04-10T18:34:33.941Z,172.10
2019-04-10T18:37:05.499Z,166.30
2019-04-10T18:39:36.712Z,190.40
2019-04-10T18:42:07.834Z,223.37
2019-04-10T18:44:39.583Z,282.33
2019-04-10T18:47:11.094Z,264.23
2019-04-10T18:49:43.376Z,238.97
2019-04-10T18:52:15.087Z,206.03
2019-04-10T18:54:46.212Z,191.20
2019-04-10T18:57:17.802Z,182.53
2019-04-10T19:00:03.444Z,191.00
2019-04-10T19:02:45.312Z,186.00
2019-04-10T19:05:19.918Z,193.20
2019-04-10T19:07:50.992Z,168.97
2019-04-10T19:10:22.206Z,206.73
2019-04-10T19:12:53.147Z,179.27
2019-04-10T19:15:24.413Z,192.70
2019-04-10T19:17:55.886Z,204.47
2019-04-10T19:20:26.902Z,202.57
2019-04-10T19:22:59.016Z,201.13
2019-04-10T19:25:30.364Z,188.63
2019-04-10T19:28:01.381Z,223.47
2019-04-10T19:31:08.070Z,189.13
2019-04-10T19:33:28.668Z,176.43
2019-04-10T19:35:59.685Z,201.50
2019-04-10T19:38:31.607Z,177.97
2019-04-10T19:41:02.797Z,228.43
2019-04-10T19:43:34.760Z,187.07
2019-04-10T19:46:06.698Z,202.70
2019-04-10T19:48:37.688Z,170.47
2019-04-10T19:51:09.781Z,180.80
2019-04-10T19:53:41.560Z,175.63
2019-04-10T19:56:12.739Z,198.97
2019-04-10T19:58:45.995Z,182.97
2019-04-10T20:01:17.191Z,197.27
2019-04-10T20:03:48.613Z,190.27
2019-04-10T20:06:21.346Z,195.13
2019-04-10T20:08:52.320Z,176.37
2019-04-10T20:11:33.787Z,189.83
2019-04-10T20:13:57.038Z,181.63
2019-04-10T20:16:28.856Z,184.90
2019-04-10T20:19:01.250Z,227.60
2019-04-10T20:21:32.370Z,207.70
2019-04-10T20:24:04.748Z,250.07
2019-04-10T20:26:36.907Z,170.53
2019-04-10T20:29:08.055Z,209.47
2019-04-10T20:31:39.598Z,164.80
2019-04-10T20:34:11.525Z,208.27
2019-04-10T20:36:42.682Z,182.70
2019-04-10T20:39:14.865Z,182.43
2019-04-10T20:41:51.942Z,171.90
2019-04-10T20:44:18.803Z,164.83
2019-04-10T20:46:50.753Z,176.77
2019-04-10T20:49:22.505Z,173.67
2019-04-10T20:51:53.681Z,175.97
2019-04-10T20:54:24.738Z,185.40
2019-04-10T20:56:56.978Z,176.90
2019-04-10T20:59:28.617Z,165.17
2019-04-10T21:01:59.954Z,187.00
2019-04-10T21:04:31.780Z,177.83
2019-04-10T21:07:03.028Z,191.47
2019-04-10T21:09:34.241Z,188.77
2019-04-10T21:12:10.375Z,197.97
2019-04-10T21:14:38.270Z,191.90
2019-04-10T21:17:09.269Z,196.30
2019-04-10T21:19:40.967Z,179.57
2019-04-10T21:22:12.026Z,183.50
2019-04-10T21:24:43.399Z,164.80
2019-04-10T21:27:14.511Z,172.07
2019-04-10T21:29:54.798Z,168.53
2019-04-10T21:32:52.910Z,172.50
2019-04-10T21:35:29.627Z,200.37
2019-04-10T21:38:02.591Z,169.33
2019-04-10T21:40:34.745Z,177.97
2019-04-10T21:43:07.006Z,187.10
2019-04-10T21:45:39.258Z,182.60
2019-04-10T21:48:10.504Z,189.07
2019-04-10T21:50:41.857Z,201.57
2019-04-10T21:53:12.957Z,199.87
2019-04-10T21:55:43.939Z,189.13
2019-04-10T21:58:14.927Z,175.83
2019-04-10T22:01:20.191Z,208.57
2019-04-10T22:03:52.886Z,164.23
2019-04-10T22:06:49.469Z,209.33
2019-04-10T22:09:39.055Z,164.20
2019-04-10T22:12:43.933Z,203.37
2019-04-10T22:15:22.582Z,173.50
2019-04-10T22:17:53.531Z,169.67
2019-04-10T22:20:25.653Z,178.80
2019-04-10T22:22:57.601Z,169.77
2019-04-10T22:25:29.742Z,179.23
2019-04-10T22:28:00.861Z,174.57
2019-04-10T22:30:32.907Z,186.20
2019-04-10T23:15:15.414Z,170.80
2019-04-10T23:17:46.423Z,168.10
2019-04-10T23:20:18.534Z,153.70
2019-04-10T23:22:50.626Z,184.80
2019-04-10T23:25:22.464Z,178.03
2019-04-10T23:27:56.218Z,172.50
2019-04-10T23:30:26.721Z,175.37
2019-04-10T23:32:57.800Z,190.27
2019-04-10T23:35:29.508Z,183.93
2019-04-10T23:38:01.487Z,175.43
2019-04-10T23:40:32.829Z,187.93
2019-04-10T23:43:11.265Z,169.37
2019-04-10T23:45:37.699Z,167.13
2019-04-10T23:48:08.966Z,157.83
2019-04-10T23:50:40.651Z,165.77
2019-04-10T23:53:12.076Z,149.40
2019-04-10T23:55:43.256Z,184.70
2019-04-10T23:58:14.333Z,174.00
